Time;durP1;ratioP1;P1;durP2;ratioP2;P2;SDS_P1;SDS_P2;PMS_P1;PMS_P2;Temp;Humidity;BMP_temperature;BMP_pressure;BME280_temperature;BME280_humidity;BME280_pressure;Samples;Min_cycle;Max_cycle;Signal;HPM_P1;HPM_P2
2023/08/12 00:00:36;;;;;;;;;;;;;;;;;;6184886;28;21049;-67
2023/08/12 00:03:36;;;;;;;;;;;;;;;;;;6189343;28;19914;-67
2023/08/12 00:06:36;;;;;;;;;;;;;;;;;;6187641;28;20317;-66
2023/08/12 00:09:37;;;;;;;;;;;;;;;;;;6185751;28;19997;-66
2023/08/12 00:12:37;;;;;;;;;;;;;;;;;;6187699;28;19913;-66
2023/08/12 00:15:37;;;;;;;;;;;;;;;;;;6192302;28;20371;-65
2023/08/12 00:18:37;;;;;;;;;;;;;;;;;;6184438;28;20447;-66
2023/08/12 00:21:38;;;;;;;;;;;;;;;;;;6183981;28;20369;-66
2023/08/12 00:24:38;;;;;;;;;;;;;;;;;;6187749;28;20260;-66
2023/08/12 00:27:38;;;;;;;;;;;;;;;;;;6180924;28;19918;-66
2023/08/12 00:30:38;;;;;;;;;;;;;;;;;;6184481;28;19956;-65
2023/08/12 00:33:38;;;;;;;;;;;;;;;;;;6183827;28;20113;-65
2023/08/12 00:36:38;;;;;;;;;;;;;;;;;;6184891;28;19979;-65
2023/08/12 00:39:38;;;;;;;;;;;;;;;;;;6185562;28;19917;-69
2023/08/12 00:42:39;;;;;;;;;;;;;;;;;;6185816;28;20020;-66
2023/08/12 00:45:39;;;;;;;;;;;;;;;;;;6187813;28;19924;-66
2023/08/12 00:48:40;;;;;;;;;;;;;;;;;;6183825;28;20020;-66
2023/08/12 00:51:41;;;;;;;;;;;;;;;;;;6187580;28;19936;-66
2023/08/12 00:54:41;;;;;;;;;;;;;;;;;;6188205;28;20036;-66
2023/08/12 00:57:41;;;;;;;;;;;;;;;;;;6188066;28;19951;-67
2023/08/12 01:00:41;;;;;;;;;;;;;;;;;;6187925;28;19909;-67
2023/08/12 01:03:41;;;;;;;;;;;;;;;;;;6189052;28;19955;-67
2023/08/12 01:06:41;;;;;;;;;;;;;;;;;;6185377;28;20221;-65
2023/08/12 01:09:42;;;;;;;;;;;;;;;;;;6186143;28;20652;-66
2023/08/12 01:12:42;;;;;;;;;;;;;;;;;;6186348;28;19917;-66
2023/08/12 01:15:42;;;;;;;;;;;;;;;;;;6187590;28;20051;-66
2023/08/12 01:18:42;;;;;;;;;;;;;;;;;;6181562;28;19972;-66
2023/08/12 01:21:42;;;;;;;;;;;;;;;;;;6183495;28;20664;-70
2023/08/12 01:24:42;;;;;;;;;;;;;;;;;;6187069;28;19914;-65
2023/08/12 01:27:42;;;;;;;;;;;;;;;;;;6187239;28;20379;-66
2023/08/12 01:30:42;;;;;;;;;;;;;;;;;;6186055;28;20344;-66
2023/08/12 01:33:43;;;;;;;;;;;;;;;;;;6187316;28;19930;-67
2023/08/12 01:36:43;;;;;;;;;;;;;;;;;;6185636;28;19968;-67
2023/08/12 01:39:43;;;;;;;;;;;;;;;;;;6188347;28;19932;-65
2023/08/12 01:42:43;;;;;;;;;;;;;;;;;;6188484;28;20359;-66
2023/08/12 01:45:43;;;;;;;;;;;;;;;;;;6187736;28;19996;-66
2023/08/12 01:48:44;;;;;;;;;;;;;;;;;;6190370;28;20084;-66
2023/08/12 01:51:44;;;;;;;;;;;;;;;;;;6190471;28;19917;-66
2023/08/12 01:54:44;;;;;;;;;;;;;;;;;;6188738;28;19909;-65
2023/08/12 01:57:44;;;;;;;;;;;;;;;;;;6191870;28;19972;-65
2023/08/12 02:00:45;;;;;;;;;;;;;;;;;;6188965;28;19935;-67
2023/08/12 02:03:45;;;;;;;;;;;;;;;;;;6190887;28;19916;-70
2023/08/12 02:06:45;;;;;;;;;;;;;;;;;;6192412;28;19910;-67
2023/08/12 02:09:45;;;;;;;;;;;;;;;;;;6188459;28;19945;-66
2023/08/12 02:12:45;;;;;;;;;;;;;;;;;;6187886;28;20305;-66
2023/08/12 02:15:45;;;;;;;;;;;;;;;;;;6185968;28;19914;-66
2023/08/12 02:18:46;;;;;;;;;;;;;;;;;;6190249;28;19918;-66
2023/08/12 02:21:46;;;;;;;;;;;;;;;;;;6187029;28;20426;-66
2023/08/12 02:24:46;;;;;;;;;;;;;;;;;;6184127;28;20051;-65
2023/08/12 02:27:46;;;;;;;;;;;;;;;;;;6183812;28;19936;-65
2023/08/12 02:30:46;;;;;;;;;;;;;;;;;;6190709;28;20002;-65
2023/08/12 02:33:46;;;;;;;;;;;;;;;;;;6185175;28;19940;-65
2023/08/12 02:36:46;;;;;;;;;;;;;;;;;;6187461;28;19936;-65
2023/08/12 02:39:46;;;;;;;;;;;;;;;;;;6183699;28;19925;-65
2023/08/12 02:42:47;;;;;;;;;;;;;;;;;;6184900;28;19910;-65
2023/08/12 02:45:47;;;;;;;;;;;;;;;;;;6188223;28;19917;-67
2023/08/12 02:48:47;;;;;;;;;;;;;;;;;;6186487;28;19957;-64
2023/08/12 02:51:47;;;;;;;;;;;;;;;;;;6188257;28;19914;-69
2023/08/12 02:54:47;;;;;;;;;;;;;;;;;;6190394;28;19976;-67
2023/08/12 02:57:47;;;;;;;;;;;;;;;;;;6188397;28;20384;-65
2023/08/12 03:00:47;;;;;;;;;;;;;;;;;;6192143;28;19914;-65
2023/08/12 03:03:48;;;;;;;;;;;;;;;;;;6191717;28;20005;-65
2023/08/12 03:06:48;;;;;;;;;;;;;;;;;;6192096;28;19972;-66
2023/08/12 03:09:48;;;;;;;;;;;;;;;;;;6188522;28;19961;-67
2023/08/12 03:12:48;;;;;;;;;;;;;;;;;;6183656;28;20482;-66
2023/08/12 03:15:48;;;;;;;;;;;;;;;;;;6186601;28;20285;-66
2023/08/12 03:18:48;;;;;;;;;;;;;;;;;;6186864;28;20018;-65
2023/08/12 03:21:48;;;;;;;;;;;;;;;;;;6190044;28;20368;-65
2023/08/12 03:24:49;;;;;;;;;;;;;;;;;;6188063;28;19913;-65
2023/08/12 03:27:49;;;;;;;;;;;;;;;;;;6186337;28;19918;-66
2023/08/12 03:30:49;;;;;;;;;;;;;;;;;;6186500;28;20328;-67
2023/08/12 03:33:49;;;;;;;;;;;;;;;;;;6187653;28;19924;-66
2023/08/12 03:36:50;;;;;;;;;;;;;;;;;;6173386;28;19957;-67
2023/08/12 03:39:50;;;;;;;;;;;;;;;;;;6188676;28;19987;-66
2023/08/12 03:42:50;;;;;;;;;;;;;;;;;;6185205;28;19909;-65
2023/08/12 03:45:50;;;;;;;;;;;;;;;;;;6196447;28;19913;-67
2023/08/12 03:48:50;;;;;;;;;;;;;;;;;;6188518;28;20016;-65
2023/08/12 03:51:51;;;;;;;;;;;;;;;;;;6190267;28;19910;-65
2023/08/12 03:54:52;;;;;;;;;;;;;;;;;;6185509;28;19987;-66
2023/08/12 03:57:52;;;;;;;;;;;;;;;;;;6177429;28;19929;-65
2023/08/12 04:00:53;;;;;;;;;;;;;;;;;;6188515;28;19910;-68
2023/08/12 04:03:53;;;;;;;;;;;;;;;;;;6188310;28;19913;-66
2023/08/12 04:06:53;;;;;;;;;;;;;;;;;;6186271;28;19914;-65
2023/08/12 04:09:53;;;;;;;;;;;;;;;;;;6185913;28;19996;-65
2023/08/12 04:12:53;;;;;;;;;;;;;;;;;;6185411;28;19940;-65
2023/08/12 04:15:53;;;;;;;;;;;;;;;;;;6181392;28;20367;-66
2023/08/12 04:18:54;;;;;;;;;;;;;;;;;;6182135;28;19917;-66
2023/08/12 04:21:54;;;;;;;;;;;;;;;;;;6185857;28;19933;-65
2023/08/12 04:24:54;;;;;;;;;;;;;;;;;;6187149;28;19921;-66
2023/08/12 04:27:54;;;;;;;;;;;;;;;;;;6189381;28;19913;-67
2023/08/12 04:30:54;;;;;;;;;;;;;;;;;;6186296;28;20479;-66
2023/08/12 04:33:54;;;;;;;;;;;;;;;;;;6186311;28;20338;-67
2023/08/12 04:36:54;;;;;;;;;;;;;;;;;;6190368;28;20420;-67
2023/08/12 04:39:54;;;;;;;;;;;;;;;;;;6186491;28;19944;-66
2023/08/12 04:42:54;;;;;;;;;;;;;;;;;;6184257;28;19923;-69
2023/08/12 04:45:55;;;;;;;;;;;;;;;;;;6185047;28;19945;-65
2023/08/12 04:48:55;;;;;;;;;;;;;;;;;;6183914;28;19925;-66
2023/08/12 04:51:55;;;;;;;;;;;;;;;;;;6187970;28;19916;-65
2023/08/12 04:54:55;;;;;;;;;;;;;;;;;;6188413;28;19920;-66
2023/08/12 04:57:55;;;;;;;;;;;;;;;;;;6187331;28;19944;-65
2023/08/12 05:00:55;;;;;;;;;;;;;;;;;;6188781;28;20347;-65
2023/08/12 05:03:55;;;;;;;;;;;;;;;;;;6205586;28;20008;-65
2023/08/12 05:06:56;;;;;;;;;;;;;;;;;;6200347;28;19921;-65
2023/08/12 05:09:56;;;;;;;;;;;;;;;;;;6205284;28;19914;-66
2023/08/12 05:12:56;;;;;;;;;;;;;;;;;;6195371;28;20364;-66
2023/08/12 05:15:56;;;;;;;;;;;;;;;;;;6189422;28;20369;-66
2023/08/12 05:18:56;;;;;;;;;;;;;;;;;;6180606;28;19968;-65
2023/08/12 05:21:56;;;;;;;;;;;;;;;;;;6183895;28;19924;-66
2023/08/12 05:24:56;;;;;;;;;;;;;;;;;;6187570;28;19917;-70
2023/08/12 05:27:57;;;;;;;;;;;;;;;;;;6189680;28;20005;-66
2023/08/12 05:30:57;;;;;;;;;;;;;;;;;;6201094;28;19976;-67
2023/08/12 05:33:57;;;;;;;;;;;;;;;;;;6193666;28;19910;-65
2023/08/12 05:36:57;;;;;;;;;;;;;;;;;;6201678;28;19956;-65
2023/08/12 05:39:57;;;;;;;;;;;;;;;;;;6183859;28;19918;-65
2023/08/12 05:42:57;;;;;;;;;;;;;;;;;;6185025;28;19913;-66
2023/08/12 05:45:57;;;;;;;;;;;;;;;;;;6172819;28;19921;-67
2023/08/12 05:48:57;;;;;;;;;;;;;;;;;;6179322;28;19961;-66
2023/08/12 05:51:58;;;;;;;;;;;;;;;;;;6178820;28;19917;-67
2023/08/12 05:54:58;;;;;;;;;;;;;;;;;;6177501;28;19914;-67
2023/08/12 05:57:58;;;;;;;;;;;;;;;;;;6179918;28;19921;-66
2023/08/12 06:00:58;;;;;;;;;;;;;;;;;;6177243;28;20413;-64
2023/08/12 06:03:58;;;;;;;;;;;;;;;;;;6178009;28;22043;-67
2023/08/12 06:06:58;;;;;;;;;;;;;;;;;;6178460;28;20328;-71
2023/08/12 06:09:58;;;;;;;;;;;;;;;;;;6178058;28;20024;-66
2023/08/12 06:12:58;;;;;;;;;;;;;;;;;;6181054;28;20426;-65
2023/08/12 06:15:59;;;;;;;;;;;;;;;;;;6179607;28;19917;-65
2023/08/12 06:18:59;;;;;;;;;;;;;;;;;;6179247;28;20336;-65
2023/08/12 06:21:59;;;;;;;;;;;;;;;;;;6181918;28;19913;-65
2023/08/12 06:24:59;;;;;;;;;;;;;;;;;;6182880;28;20047;-65
2023/08/12 06:27:59;;;;;;;;;;;;;;;;;;6177900;28;19928;-66
2023/08/12 06:30:59;;;;;;;;;;;;;;;;;;6176367;28;19925;-66
2023/08/12 06:34:00;;;;;;;;;;;;;;;;;;6180937;28;19925;-68
2023/08/12 06:37:00;;;;;;;;;;;;;;;;;;5845218;28;10000025;-68
2023/08/12 06:40:01;;;;;;;;;;;;;;;;;;6175096;28;19918;-77
2023/08/12 06:43:01;;;;;;;;;;;;;;;;;;6178244;28;19917;-74
2023/08/12 06:46:01;;;;;;;;;;;;;;;;;;6193265;28;19918;-75
2023/08/12 06:49:02;;;;;;;;;;;;;;;;;;6201477;28;20044;-75
2023/08/12 06:52:02;;;;;;;;;;;;;;;;;;6203797;28;19909;-74
2023/08/12 06:55:02;;;;;;;;;;;;;;;;;;6175329;28;19968;-73
2023/08/12 06:58:02;;;;;;;;;;;;;;;;;;6183097;28;19921;-73
2023/08/12 07:01:02;;;;;;;;;;;;;;;;;;6187420;28;19920;-73
2023/08/12 07:04:02;;;;;;;;;;;;;;;;;;6190797;28;19914;-73
2023/08/12 07:07:02;;;;;;;;;;;;;;;;;;6189719;28;20008;-71
2023/08/12 07:10:04;;;;;;;;;;;;;;;;;;6191344;28;20009;-73
2023/08/12 07:13:04;;;;;;;;;;;;;;;;;;6188946;28;19926;-75
2023/08/12 07:16:04;;;;;;;;;;;;;;;;;;6180270;28;19925;-75
2023/08/12 07:19:04;;;;;;;;;;;;;;;;;;6200578;28;19913;-74
2023/08/12 07:22:05;;;;;;;;;;;;;;;;;;5845016;28;10000440;-74
2023/08/12 07:25:05;;;;;;;;;;;;;;;;;;6180757;28;20059;-75
2023/08/12 07:28:05;;;;;;;;;;;;;;;;;;6180932;28;20055;-76
2023/08/12 07:31:05;;;;;;;;;;;;;;;;;;6196039;28;20331;-74
2023/08/12 07:34:05;;;;;;;;;;;;;;;;;;6201646;28;20309;-74
2023/08/12 07:37:05;;;;;;;;;;;;;;;;;;6210476;28;19909;-75
2023/08/12 07:40:06;;;;;;;;;;;;;;;;;;6199842;28;20020;-75
2023/08/12 07:43:06;;;;;;;;;;;;;;;;;;6207156;28;19963;-74
2023/08/12 07:46:06;;;;;;;;;;;;;;;;;;6214007;28;19928;-74
2023/08/12 07:49:06;;;;;;;;;;;;;;;;;;6199338;28;20003;-74
2023/08/12 07:52:06;;;;;;;;;;;;;;;;;;6207830;28;19949;-74
2023/08/12 07:55:06;;;;;;;;;;;;;;;;;;6205702;28;19949;-74
2023/08/12 07:58:07;;;;;;;;;;;;;;;;;;6224469;28;19964;-74
2023/08/12 08:01:09;;;;;;;;;;;;;;;;;;6192042;28;19914;-77
2023/08/12 08:04:09;;;;;;;;;;;;;;;;;;6199145;28;19913;-80
2023/08/12 08:07:09;;;;;;;;;;;;;;;;;;6206935;28;19955;-74
2023/08/12 08:10:09;;;;;;;;;;;;;;;;;;6224966;28;19979;-74
2023/08/12 08:13:09;;;;;;;;;;;;;;;;;;6204690;28;19988;-75
2023/08/12 08:16:09;;;;;;;;;;;;;;;;;;6222465;28;19956;-76
2023/08/12 08:19:10;;;;;;;;;;;;;;;;;;6219393;28;19951;-74
2023/08/12 08:22:10;;;;;;;;;;;;;;;;;;6212074;28;20375;-75
2023/08/12 08:25:11;;;;;;;;;;;;;;;;;;6222588;28;19905;-75
2023/08/12 08:28:11;;;;;;;;;;;;;;;;;;6206033;28;20443;-74
2023/08/12 08:31:11;;;;;;;;;;;;;;;;;;6180117;28;19913;-76
2023/08/12 08:34:11;;;;;;;;;;;;;;;;;;6172565;28;20053;-74
2023/08/12 08:37:11;;;;;;;;;;;;;;;;;;6190216;28;20399;-75
2023/08/12 08:40:12;;;;;;;;;;;;;;;;;;6197635;28;19910;-76
2023/08/12 08:43:12;;;;;;;;;;;;;;;;;;6222424;28;19906;-75
2023/08/12 08:46:12;;;;;;;;;;;;;;;;;;6196545;28;19910;-78
2023/08/12 08:49:12;;;;;;;;;;;;;;;;;;6199133;28;19926;-73
2023/08/12 08:52:12;;;;;;;;;;;;;;;;;;6199891;28;19906;-75
2023/08/12 08:55:12;;;;;;;;;;;;;;;;;;6217100;28;20291;-74
2023/08/12 08:58:12;;;;;;;;;;;;;;;;;;6205400;28;20023;-73
2023/08/12 09:01:13;;;;;;;;;;;;;;;;;;6214736;28;20026;-74
2023/08/12 09:04:13;;;;;;;;;;;;;;;;;;6180349;28;20319;-75
2023/08/12 09:07:16;;;;;;;;;;;;;;;;;;6181247;28;19906;-75
2023/08/12 09:10:16;;;;;;;;;;;;;;;;;;6197365;28;20387;-75
2023/08/12 09:13:18;;;;;;;;;;;;;;;;;;6197745;28;19916;-75
2023/08/12 09:16:18;;;;;;;;;;;;;;;;;;6201190;28;19909;-73
2023/08/12 09:19:18;;;;;;;;;;;;;;;;;;6198261;28;19964;-73
2023/08/12 09:22:18;;;;;;;;;;;;;;;;;;5852757;28;10000601;-73
2023/08/12 09:25:21;;;;;;;;;;;;;;;;;;6216668;28;19999;-75
2023/08/12 09:28:21;;;;;;;;;;;;;;;;;;6203533;28;19929;-73
2023/08/12 09:31:21;;;;;;;;;;;;;;;;;;6178466;28;19937;-75
2023/08/12 09:34:21;;;;;;;;;;;;;;;;;;6203325;28;20001;-74
2023/08/12 09:37:22;;;;;;;;;;;;;;;;;;6196604;28;19906;-73
2023/08/12 09:40:22;;;;;;;;;;;;;;;;;;6178911;28;19905;-74
2023/08/12 09:43:22;;;;;;;;;;;;;;;;;;6197171;28;20011;-74
2023/08/12 09:46:26;;;;;;;;;;;;;;;;;;6196943;28;19906;-74
2023/08/12 09:49:26;;;;;;;;;;;;;;;;;;6196776;28;20237;-75
2023/08/12 09:52:27;;;;;;;;;;;;;;;;;;6209929;28;20003;-75
2023/08/12 09:55:27;;;;;;;;;;;;;;;;;;6212531;28;19996;-74
2023/08/12 09:58:29;;;;;;;;;;;;;;;;;;6196914;28;19932;-75
2023/08/12 10:01:29;;;;;;;;;;;;;;;;;;6194999;28;19948;-75
2023/08/12 10:04:29;;;;;;;;;;;;;;;;;;6178739;28;19936;-74
2023/08/12 10:07:29;;;;;;;;;;;;;;;;;;6181718;28;19906;-74
2023/08/12 10:10:30;;;;;;;;;;;;;;;;;;6203900;28;19917;-73
2023/08/12 10:13:30;;;;;;;;;;;;;;;;;;6196789;28;19921;-73
2023/08/12 10:16:30;;;;;;;;;;;;;;;;;;6179157;28;19909;-74
2023/08/12 10:19:30;;;;;;;;;;;;;;;;;;6179555;28;19905;-74
2023/08/12 10:22:31;;;;;;;;;;;;;;;;;;6195705;28;20004;-74
2023/08/12 10:25:31;;;;;;;;;;;;;;;;;;6195558;28;19914;-74
2023/08/12 10:28:36;;;;;;;;;;;;;;;;;;6197050;28;19914;-74
2023/08/12 10:31:36;;;;;;;;;;;;;;;;;;6193553;28;19933;-75
2023/08/12 10:34:36;;;;;;;;;;;;;;;;;;6212646;28;19920;-75
2023/08/12 10:37:36;;;;;;;;;;;;;;;;;;6202372;28;19960;-74
2023/08/12 10:40:37;;;;;;;;;;;;;;;;;;6177427;28;19910;-74
2023/08/12 10:43:37;;;;;;;;;;;;;;;;;;6181782;28;19917;-77
2023/08/12 10:46:37;;;;;;;;;;;;;;;;;;6205093;28;19944;-74
2023/08/12 10:49:37;;;;;;;;;;;;;;;;;;6217019;28;20408;-74
2023/08/12 10:52:37;;;;;;;;;;;;;;;;;;6197262;28;19941;-74
2023/08/12 10:55:37;;;;;;;;;;;;;;;;;;6195828;28;19928;-74
2023/08/12 10:58:37;;;;;;;;;;;;;;;;;;6196508;28;19956;-74
2023/08/12 11:01:38;;;;;;;;;;;;;;;;;;6194079;28;19910;-74
2023/08/12 11:04:38;;;;;;;;;;;;;;;;;;6197258;28;20329;-74
2023/08/12 11:07:38;;;;;;;;;;;;;;;;;;6201143;28;19913;-74
2023/08/12 11:10:38;;;;;;;;;;;;;;;;;;6195328;28;20383;-75
2023/08/12 11:13:39;;;;;;;;;;;;;;;;;;6201880;28;20435;-75
2023/08/12 11:16:40;;;;;;;;;;;;;;;;;;6198843;28;19909;-73
2023/08/12 11:19:40;;;;;;;;;;;;;;;;;;6200917;28;19906;-73
2023/08/12 11:22:40;;;;;;;;;;;;;;;;;;6182844;28;19905;-73
2023/08/12 11:25:41;;;;;;;;;;;;;;;;;;6202776;28;19944;-77
2023/08/12 11:28:41;;;;;;;;;;;;;;;;;;6205153;28;19961;-75
2023/08/12 11:31:41;;;;;;;;;;;;;;;;;;6220649;28;19996;-75
2023/08/12 11:34:41;;;;;;;;;;;;;;;;;;6166917;28;20004;-74
2023/08/12 11:37:41;;;;;;;;;;;;;;;;;;6200110;28;19909;-74
2023/08/12 11:40:41;;;;;;;;;;;;;;;;;;6199387;28;20024;-74
2023/08/12 11:43:41;;;;;;;;;;;;;;;;;;6200701;28;19952;-74
2023/08/12 11:46:41;;;;;;;;;;;;;;;;;;6203545;28;19909;-75
2023/08/12 11:49:42;;;;;;;;;;;;;;;;;;6224733;28;20383;-75
2023/08/12 11:52:42;;;;;;;;;;;;;;;;;;6195213;28;19905;-75
2023/08/12 11:55:42;;;;;;;;;;;;;;;;;;6198642;28;19932;-75
2023/08/12 11:58:42;;;;;;;;;;;;;;;;;;6199386;28;19922;-76
2023/08/12 12:01:45;;;;;;;;;;;;;;;;;;6180553;28;19906;-75
2023/08/12 12:04:47;;;;;;;;;;;;;;;;;;6207188;28;19910;-75
2023/08/12 12:07:47;;;;;;;;;;;;;;;;;;6206754;28;19912;-75
2023/08/12 12:10:49;;;;;;;;;;;;;;;;;;6204976;28;19914;-74
2023/08/12 12:13:51;;;;;;;;;;;;;;;;;;6199684;28;19912;-74
2023/08/12 12:16:51;;;;;;;;;;;;;;;;;;6196695;28;19949;-75
2023/08/12 12:19:51;;;;;;;;;;;;;;;;;;6209929;28;19967;-75
2023/08/12 12:22:51;;;;;;;;;;;;;;;;;;6223980;28;19964;-75
2023/08/12 12:25:51;;;;;;;;;;;;;;;;;;6207814;28;20311;-74
2023/08/12 12:28:51;;;;;;;;;;;;;;;;;;6198868;28;19928;-74
2023/08/12 12:31:51;;;;;;;;;;;;;;;;;;6197749;28;20016;-75
2023/08/12 12:34:52;;;;;;;;;;;;;;;;;;6199436;28;19909;-75
2023/08/12 12:37:53;;;;;;;;;;;;;;;;;;6208144;28;20402;-75
2023/08/12 12:40:53;;;;;;;;;;;;;;;;;;6198280;28;19997;-77
2023/08/12 12:43:53;;;;;;;;;;;;;;;;;;6198390;28;20474;-74
2023/08/12 12:46:53;;;;;;;;;;;;;;;;;;6197163;28;20422;-75
2023/08/12 12:49:53;;;;;;;;;;;;;;;;;;6198564;28;20336;-75
2023/08/12 12:52:53;;;;;;;;;;;;;;;;;;6209437;28;19914;-75
2023/08/12 12:55:53;;;;;;;;;;;;;;;;;;6204026;28;20395;-76
2023/08/12 12:58:53;;;;;;;;;;;;;;;;;;6181389;28;20024;-76
2023/08/12 13:01:55;;;;;;;;;;;;;;;;;;6179667;28;19922;-75
2023/08/12 13:04:56;;;;;;;;;;;;;;;;;;6211842;28;19910;-75
2023/08/12 13:07:56;;;;;;;;;;;;;;;;;;6198604;28;19913;-76
2023/08/12 13:10:56;;;;;;;;;;;;;;;;;;6197754;28;19960;-76
2023/08/12 13:13:56;;;;;;;;;;;;;;;;;;6198423;28;19910;-75
2023/08/12 13:16:56;;;;;;;;;;;;;;;;;;6201056;28;19917;-74
2023/08/12 13:19:56;;;;;;;;;;;;;;;;;;6199310;28;19909;-74
2023/08/12 13:22:56;;;;;;;;;;;;;;;;;;6197982;28;19906;-80
2023/08/12 13:25:57;;;;;;;;;;;;;;;;;;6204292;28;19988;-76
2023/08/12 13:28:57;;;;;;;;;;;;;;;;;;6212251;28;19974;-76
2023/08/12 13:31:57;;;;;;;;;;;;;;;;;;6198578;28;19906;-75
2023/08/12 13:34:57;;;;;;;;;;;;;;;;;;6205117;28;20357;-75
2023/08/12 13:37:57;;;;;;;;;;;;;;;;;;6197729;28;19956;-75
2023/08/12 13:40:57;;;;;;;;;;;;;;;;;;6196562;28;19992;-75
2023/08/12 13:43:57;;;;;;;;;;;;;;;;;;6179970;28;19909;-75
2023/08/12 13:46:57;;;;;;;;;;;;;;;;;;6195637;28;19945;-75
2023/08/12 13:49:57;;;;;;;;;;;;;;;;;;6204774;28;19913;-76
2023/08/12 13:52:58;;;;;;;;;;;;;;;;;;6205590;28;19953;-76
2023/08/12 13:55:58;;;;;;;;;;;;;;;;;;6178992;28;19910;-77
2023/08/12 13:58:58;;;;;;;;;;;;;;;;;;6196990;28;19941;-74
2023/08/12 14:01:58;;;;;;;;;;;;;;;;;;6211306;28;19987;-74
2023/08/12 14:04:58;;;;;;;;;;;;;;;;;;6197325;28;19917;-79
2023/08/12 14:07:59;;;;;;;;;;;;;;;;;;6206726;28;19916;-74
2023/08/12 14:10:59;;;;;;;;;;;;;;;;;;6183594;28;19916;-74
2023/08/12 14:13:59;;;;;;;;;;;;;;;;;;6177971;28;19913;-74
2023/08/12 14:16:59;;;;;;;;;;;;;;;;;;6177545;28;19906;-75
2023/08/12 14:19:59;;;;;;;;;;;;;;;;;;6194036;28;19992;-76
2023/08/12 14:22:59;;;;;;;;;;;;;;;;;;6197082;28;20455;-75
2023/08/12 14:25:59;;;;;;;;;;;;;;;;;;6195560;28;19916;-75
2023/08/12 14:29:00;;;;;;;;;;;;;;;;;;6179338;28;19913;-75
2023/08/12 14:32:00;;;;;;;;;;;;;;;;;;6194269;28;20009;-76
2023/08/12 14:35:00;;;;;;;;;;;;;;;;;;6199664;28;20004;-76
2023/08/12 14:38:00;;;;;;;;;;;;;;;;;;6221191;28;19905;-76
2023/08/12 14:41:00;;;;;;;;;;;;;;;;;;6198918;28;20012;-76
2023/08/12 14:44:00;;;;;;;;;;;;;;;;;;6201486;28;19941;-77
2023/08/12 14:47:01;;;;;;;;;;;;;;;;;;6200890;28;19914;-76
2023/08/12 14:50:01;;;;;;;;;;;;;;;;;;6201997;28;20120;-76
2023/08/12 14:53:01;;;;;;;;;;;;;;;;;;6210181;28;19910;-76
2023/08/12 14:56:01;;;;;;;;;;;;;;;;;;6200215;28;19913;-75
2023/08/12 14:59:01;;;;;;;;;;;;;;;;;;6200332;28;20356;-76
2023/08/12 15:02:02;;;;;;;;;;;;;;;;;;6199600;28;20391;-76
2023/08/12 15:05:02;;;;;;;;;;;;;;;;;;6200795;28;19960;-76
2023/08/12 15:08:03;;;;;;;;;;;;;;;;;;6209023;28;19909;-76
2023/08/12 15:11:03;;;;;;;;;;;;;;;;;;6201195;28;20363;-77
2023/08/12 15:14:04;;;;;;;;;;;;;;;;;;6200511;28;19905;-77
2023/08/12 15:17:04;;;;;;;;;;;;;;;;;;6199828;28;19992;-78
2023/08/12 15:20:05;;;;;;;;;;;;;;;;;;6201018;28;19921;-77
2023/08/12 15:23:05;;;;;;;;;;;;;;;;;;6218585;28;20434;-76
2023/08/12 15:26:05;;;;;;;;;;;;;;;;;;6222901;28;19905;-75
2023/08/12 15:29:06;;;;;;;;;;;;;;;;;;6202071;28;19917;-77
2023/08/12 15:32:06;;;;;;;;;;;;;;;;;;6180996;28;20000;-77
2023/08/12 15:35:06;;;;;;;;;;;;;;;;;;6200476;28;20284;-77
2023/08/12 15:38:06;;;;;;;;;;;;;;;;;;6192937;28;19985;-77
2023/08/12 15:41:06;;;;;;;;;;;;;;;;;;6199098;28;19993;-77
2023/08/12 15:44:07;;;;;;;;;;;;;;;;;;6199491;28;20068;-77
2023/08/12 15:47:07;;;;;;;;;;;;;;;;;;6185763;28;19910;-76
2023/08/12 15:50:07;;;;;;;;;;;;;;;;;;6189006;28;19914;-76
2023/08/12 15:53:07;;;;;;;;;;;;;;;;;;6196958;28;22265;-75
2023/08/12 15:56:07;;;;;;;;;;;;;;;;;;6196603;28;19917;-75
2023/08/12 15:59:08;;;;;;;;;;;;;;;;;;6191754;28;20293;-75
2023/08/12 16:02:08;;;;;;;;;;;;;;;;;;6187631;28;20008;-78
2023/08/12 16:05:08;;;;;;;;;;;;;;;;;;6199278;28;20025;-75
2023/08/12 16:08:08;;;;;;;;;;;;;;;;;;6181555;28;20375;-76
2023/08/12 16:11:08;;;;;;;;;;;;;;;;;;6187546;28;19953;-74
2023/08/12 16:14:09;;;;;;;;;;;;;;;;;;6184289;28;19979;-75
2023/08/12 16:17:09;;;;;;;;;;;;;;;;;;6186336;28;19909;-74
2023/08/12 16:20:10;;;;;;;;;;;;;;;;;;6179992;28;19916;-74
2023/08/12 16:23:10;;;;;;;;;;;;;;;;;;6197141;28;19949;-76
2023/08/12 16:26:10;;;;;;;;;;;;;;;;;;6195461;28;19921;-76
2023/08/12 16:29:11;;;;;;;;;;;;;;;;;;6198750;28;19916;-75
2023/08/12 16:32:11;;;;;;;;;;;;;;;;;;6195966;28;20312;-78
2023/08/12 16:35:11;;;;;;;;;;;;;;;;;;6189435;28;19960;-77
2023/08/12 16:38:11;;;;;;;;;;;;;;;;;;6186817;28;19918;-78
2023/08/12 16:41:12;;;;;;;;;;;;;;;;;;6194828;28;20009;-78
2023/08/12 16:44:12;;;;;;;;;;;;;;;;;;6196590;28;20033;-83
2023/08/12 16:47:12;;;;;;;;;;;;;;;;;;6205292;28;20362;-77
2023/08/12 16:50:12;;;;;;;;;;;;;;;;;;6213637;28;20380;-77
2023/08/12 16:53:12;;;;;;;;;;;;;;;;;;6198971;28;19910;-77
2023/08/12 16:56:13;;;;;;;;;;;;;;;;;;6198258;28;19985;-77
2023/08/12 16:59:13;;;;;;;;;;;;;;;;;;6211026;28;19921;-77
2023/08/12 17:02:13;;;;;;;;;;;;;;;;;;6218849;28;19982;-78
2023/08/12 17:05:13;;;;;;;;;;;;;;;;;;6204079;28;19917;-78
2023/08/12 17:08:13;;;;;;;;;;;;;;;;;;6213594;28;19913;-78
2023/08/12 17:11:13;;;;;;;;;;;;;;;;;;6186151;28;19920;-77
2023/08/12 17:14:13;;;;;;;;;;;;;;;;;;6192564;28;19921;-80
2023/08/12 17:17:13;;;;;;;;;;;;;;;;;;6197949;28;19932;-77
2023/08/12 17:20:14;;;;;;;;;;;;;;;;;;6198560;28;19913;-79
2023/08/12 17:23:14;;;;;;;;;;;;;;;;;;6204236;28;20318;-78
2023/08/12 17:26:14;;;;;;;;;;;;;;;;;;6197817;28;19916;-82
2023/08/12 17:29:15;;;;;;;;;;;;;;;;;;6197097;28;19913;-76
2023/08/12 17:32:15;;;;;;;;;;;;;;;;;;6193998;28;20372;-77
2023/08/12 17:35:15;;;;;;;;;;;;;;;;;;6174335;28;19906;-76
2023/08/12 17:38:15;;;;;;;;;;;;;;;;;;6198098;28;19975;-77
2023/08/12 17:41:16;;;;;;;;;;;;;;;;;;6190132;28;20001;-76
2023/08/12 17:44:16;;;;;;;;;;;;;;;;;;6196874;28;20292;-77
2023/08/12 17:47:16;;;;;;;;;;;;;;;;;;6207254;28;19909;-76
2023/08/12 17:50:16;;;;;;;;;;;;;;;;;;6222577;28;19909;-77
2023/08/12 17:53:16;;;;;;;;;;;;;;;;;;6223054;28;19992;-76
2023/08/12 17:56:17;;;;;;;;;;;;;;;;;;6196905;28;19979;-76
2023/08/12 17:59:17;;;;;;;;;;;;;;;;;;6213943;28;20320;-76
2023/08/12 18:02:17;;;;;;;;;;;;;;;;;;6220114;28;19998;-78
2023/08/12 18:05:17;;;;;;;;;;;;;;;;;;6190537;28;19941;-77
2023/08/12 18:08:17;;;;;;;;;;;;;;;;;;6200000;28;20257;-78
2023/08/12 18:11:17;;;;;;;;;;;;;;;;;;6196700;28;19995;-76
2023/08/12 18:14:21;;;;;;;;;;;;;;;;;;6197714;28;19921;-78
2023/08/12 18:17:21;;;;;;;;;;;;;;;;;;6173014;28;19906;-76
2023/08/12 18:20:21;;;;;;;;;;;;;;;;;;6208234;28;20020;-77
2023/08/12 18:23:21;;;;;;;;;;;;;;;;;;6197077;28;19921;-76
2023/08/12 18:26:21;;;;;;;;;;;;;;;;;;6177975;28;19914;-76
2023/08/12 18:29:21;;;;;;;;;;;;;;;;;;6196075;28;19924;-77
2023/08/12 18:32:21;;;;;;;;;;;;;;;;;;6190367;28;20030;-77
2023/08/12 18:35:21;;;;;;;;;;;;;;;;;;6201732;28;20326;-77
2023/08/12 18:38:22;;;;;;;;;;;;;;;;;;6222288;28;19916;-77
2023/08/12 18:41:22;;;;;;;;;;;;;;;;;;6220703;28;19913;-77
2023/08/12 18:44:22;;;;;;;;;;;;;;;;;;6185021;28;19921;-78
2023/08/12 18:47:22;;;;;;;;;;;;;;;;;;6198548;28;19913;-78
2023/08/12 18:50:22;;;;;;;;;;;;;;;;;;6215524;28;19917;-76
2023/08/12 18:53:22;;;;;;;;;;;;;;;;;;6206513;28;19965;-76
2023/08/12 18:56:23;;;;;;;;;;;;;;;;;;6184430;28;19913;-78
2023/08/12 18:59:23;;;;;;;;;;;;;;;;;;6203260;28;19949;-77
2023/08/12 19:02:23;;;;;;;;;;;;;;;;;;6202230;28;20016;-77
2023/08/12 19:05:23;;;;;;;;;;;;;;;;;;6205173;28;19909;-76
2023/08/12 19:08:23;;;;;;;;;;;;;;;;;;6199972;28;19910;-77
2023/08/12 19:11:23;;;;;;;;;;;;;;;;;;6197026;28;19913;-78
2023/08/12 19:14:24;;;;;;;;;;;;;;;;;;6197801;28;19921;-78
2023/08/12 19:17:24;;;;;;;;;;;;;;;;;;6195942;28;19913;-77
2023/08/12 19:20:24;;;;;;;;;;;;;;;;;;6208734;28;19975;-77
2023/08/12 19:23:24;;;;;;;;;;;;;;;;;;6209010;28;19948;-82
2023/08/12 19:26:24;;;;;;;;;;;;;;;;;;6196714;28;19916;-78
2023/08/12 19:29:24;;;;;;;;;;;;;;;;;;6209324;28;20032;-77
2023/08/12 19:32:24;;;;;;;;;;;;;;;;;;6198485;28;19914;-76
2023/08/12 19:35:24;;;;;;;;;;;;;;;;;;6175462;28;20459;-78
2023/08/12 19:38:25;;;;;;;;;;;;;;;;;;6176800;28;19906;-76
2023/08/12 19:41:25;;;;;;;;;;;;;;;;;;6193345;28;19960;-78
2023/08/12 19:44:25;;;;;;;;;;;;;;;;;;6199813;28;19917;-77
2023/08/12 19:47:25;;;;;;;;;;;;;;;;;;6216959;28;19928;-77
2023/08/12 19:50:25;;;;;;;;;;;;;;;;;;6221604;28;20375;-75
2023/08/12 19:53:25;;;;;;;;;;;;;;;;;;6225030;28;20004;-77
2023/08/12 19:56:26;;;;;;;;;;;;;;;;;;6223697;28;19928;-77
2023/08/12 19:59:28;;;;;;;;;;;;;;;;;;6222584;28;19975;-75
2023/08/12 20:02:28;;;;;;;;;;;;;;;;;;6201891;28;19914;-78
2023/08/12 20:05:30;;;;;;;;;;;;;;;;;;6202442;28;19984;-83
2023/08/12 20:08:30;;;;;;;;;;;;;;;;;;6202587;28;20395;-78
2023/08/12 20:11:30;;;;;;;;;;;;;;;;;;6195168;28;19910;-76
2023/08/12 20:14:31;;;;;;;;;;;;;;;;;;6198492;28;20367;-76
2023/08/12 20:17:31;;;;;;;;;;;;;;;;;;6213583;28;20340;-76
2023/08/12 20:20:32;;;;;;;;;;;;;;;;;;6200192;28;20019;-76
2023/08/12 20:23:33;;;;;;;;;;;;;;;;;;6200283;28;19910;-76
2023/08/12 20:26:34;;;;;;;;;;;;;;;;;;6198118;28;20296;-78
2023/08/12 20:29:34;;;;;;;;;;;;;;;;;;6199100;28;19910;-76